N35LF EDMA-EDML

Flight info

Callsign N35LF
Flight time 0h 21m
Altitude 4500
Route VFR
Aircraft BE35/L-BDFGLORY/S

Departure

Time 2026-04-17 22:27
Airport Augsburg Airport (EDMA)

Arrival

Time 2026-04-17 22:49
Airport Landshut Airfield (EDML)
Time Latitude Longitude Altitude Speed Heading
2026-04-17 22:05 48.42142 10.92432 1512 ft 0 kts 64°
2026-04-17 22:18 48.42155 10.92450 1512 ft 5 kts 14°
2026-04-17 22:18 48.42209 10.92427 1512 ft 10 kts 341°
2026-04-17 22:19 48.42276 10.92407 1511 ft 10 kts 32°
2026-04-17 22:19 48.42312 10.92537 1511 ft 16 kts 72°
2026-04-17 22:19 48.42351 10.92718 1511 ft 19 kts 73°
2026-04-17 22:19 48.42393 10.92910 1513 ft 18 kts 74°
2026-04-17 22:20 48.42434 10.93088 1513 ft 17 kts 71°
2026-04-17 22:20 48.42471 10.93252 1514 ft 16 kts 71°
2026-04-17 22:20 48.42509 10.93422 1514 ft 18 kts 72°
2026-04-17 22:20 48.42551 10.93611 1513 ft 19 kts 71°
2026-04-17 22:21 48.42598 10.93811 1513 ft 21 kts 72°
2026-04-17 22:21 48.42631 10.93990 1512 ft 7 kts 76°
2026-04-17 22:21 48.42644 10.94017 1512 ft 0 kts 337°
2026-04-17 22:23 48.42650 10.94010 1512 ft 3 kts 307°
2026-04-17 22:24 48.42627 10.93946 1512 ft 14 kts 243°
2026-04-17 22:24 48.42586 10.93765 1513 ft 19 kts 252°
2026-04-17 22:24 48.42543 10.93579 1514 ft 18 kts 252°
2026-04-17 22:24 48.42503 10.93401 1514 ft 17 kts 250°
2026-04-17 22:25 48.42465 10.93227 1515 ft 17 kts 251°
2026-04-17 22:25 48.42424 10.93044 1513 ft 19 kts 251°
2026-04-17 22:25 48.42382 10.92856 1512 ft 19 kts 252°
2026-04-17 22:25 48.42338 10.92660 1511 ft 19 kts 251°
2026-04-17 22:26 48.42294 10.92470 1512 ft 18 kts 252°
2026-04-17 22:26 48.42304 10.92382 1511 ft 9 kts 338°
2026-04-17 22:26 48.42358 10.92416 1511 ft 12 kts 72°
2026-04-17 22:26 48.42413 10.92676 1512 ft 56 kts 72°
2026-04-17 22:27 48.42570 10.93450 1611 ft 88 kts 72°
2026-04-17 22:27 48.42764 10.94376 1818 ft 91 kts 55°
2026-04-17 22:27 48.43138 10.95172 2004 ft 96 kts 55°
2026-04-17 22:27 48.43501 10.96010 2205 ft 97 kts 53°
2026-04-17 22:28 48.43876 10.96866 2400 ft 98 kts 53°
2026-04-17 22:28 48.44254 10.97725 2553 ft 102 kts 53°
2026-04-17 22:28 48.44664 10.98618 2689 ft 105 kts 44°
2026-04-17 22:28 48.45288 10.99170 2818 ft 105 kts 11°
2026-04-17 22:29 48.46019 10.99165 2949 ft 106 kts 354°
2026-04-17 22:29 48.46787 10.99048 2993 ft 115 kts 352°
2026-04-17 22:29 48.47610 10.98907 2996 ft 123 kts 353°
2026-04-17 22:29 48.48491 10.98771 3000 ft 132 kts 354°
2026-04-17 22:30 48.49437 10.98636 2998 ft 142 kts 354°
2026-04-17 22:30 48.50452 10.98499 2997 ft 148 kts 354°
2026-04-17 22:30 48.51483 10.98354 2996 ft 152 kts 353°
2026-04-17 22:30 48.52536 10.98199 2995 ft 153 kts 353°
2026-04-17 22:31 48.53599 10.98224 2983 ft 155 kts 17°
2026-04-17 22:31 48.54386 10.99306 2988 ft 157 kts 58°
2026-04-17 22:31 48.54733 11.00851 2995 ft 158 kts 79°
2026-04-17 22:31 48.54828 11.02520 2996 ft 159 kts 85°
2026-04-17 22:32 48.54856 11.04197 2993 ft 160 kts 87°
2026-04-17 22:32 48.54881 11.05844 2993 ft 160 kts 86°
2026-04-17 22:32 48.54916 11.07509 3081 ft 154 kts 86°
2026-04-17 22:32 48.54956 11.09108 3227 ft 150 kts 85°
2026-04-17 22:33 48.54999 11.10676 3370 ft 148 kts 85°
2026-04-17 22:33 48.55042 11.12215 3515 ft 147 kts 85°
2026-04-17 22:33 48.55085 11.13738 3660 ft 146 kts 85°
2026-04-17 22:33 48.55129 11.15273 3805 ft 145 kts 85°
2026-04-17 22:34 48.55173 11.16786 3950 ft 144 kts 85°
2026-04-17 22:34 48.55216 11.18290 4092 ft 144 kts 85°
2026-04-17 22:34 48.55259 11.19803 4180 ft 148 kts 84°
2026-04-17 22:34 48.55304 11.21397 4194 ft 155 kts 85°
2026-04-17 22:35 48.55349 11.23035 4195 ft 159 kts 85°
2026-04-17 22:35 48.55395 11.24736 4197 ft 162 kts 85°
2026-04-17 22:35 48.55441 11.26437 4196 ft 164 kts 85°
2026-04-17 22:35 48.55488 11.28166 4196 ft 165 kts 86°
2026-04-17 22:36 48.55535 11.29901 4196 ft 166 kts 86°
2026-04-17 22:36 48.55583 11.31657 4196 ft 166 kts 86°
2026-04-17 22:36 48.55630 11.33390 4196 ft 167 kts 86°
2026-04-17 22:36 48.55677 11.35131 4193 ft 167 kts 85°
2026-04-17 22:37 48.55724 11.36888 4194 ft 167 kts 85°
2026-04-17 22:37 48.55771 11.38624 4195 ft 166 kts 85°
2026-04-17 22:37 48.55818 11.40381 4195 ft 166 kts 85°
2026-04-17 22:37 48.55864 11.42116 4196 ft 166 kts 85°
2026-04-17 22:38 48.55910 11.43862 4196 ft 166 kts 85°
2026-04-17 22:38 48.55956 11.45596 4195 ft 166 kts 85°
2026-04-17 22:38 48.56001 11.47344 4195 ft 167 kts 85°
2026-04-17 22:38 48.56047 11.49080 4195 ft 167 kts 86°
2026-04-17 22:39 48.56092 11.50857 4194 ft 167 kts 86°
2026-04-17 22:39 48.56137 11.52605 4195 ft 167 kts 86°
2026-04-17 22:39 48.56226 11.56115 4193 ft 168 kts 86°
2026-04-17 22:40 48.56270 11.57854 4199 ft 167 kts 86°
2026-04-17 22:40 48.56314 11.59628 4194 ft 168 kts 85°
2026-04-17 22:40 48.56358 11.61369 4190 ft 167 kts 85°
2026-04-17 22:40 48.56401 11.63124 4197 ft 167 kts 85°
2026-04-17 22:41 48.56444 11.64872 4197 ft 167 kts 85°
2026-04-17 22:41 48.56487 11.66616 4194 ft 167 kts 86°
2026-04-17 22:41 48.56513 11.68390 4193 ft 167 kts 88°
2026-04-17 22:41 48.56517 11.70127 4164 ft 169 kts 88°
2026-04-17 22:42 48.56520 11.71918 4087 ft 171 kts 88°
2026-04-17 22:42 48.56525 11.73705 4003 ft 169 kts 88°
2026-04-17 22:42 48.56451 11.75473 3900 ft 170 kts 102°
2026-04-17 22:42 48.56088 11.77172 3801 ft 169 kts 108°
2026-04-17 22:43 48.55712 11.78833 3701 ft 169 kts 108°
2026-04-17 22:43 48.55331 11.80506 3599 ft 169 kts 108°
2026-04-17 22:43 48.54945 11.82192 3500 ft 168 kts 108°
2026-04-17 22:43 48.54566 11.83843 3398 ft 168 kts 108°
2026-04-17 22:44 48.54180 11.85504 3300 ft 167 kts 108°
2026-04-17 22:44 48.53796 11.87147 3201 ft 163 kts 108°
2026-04-17 22:44 48.53428 11.88719 3096 ft 158 kts 108°
2026-04-17 22:44 48.53068 11.90261 2988 ft 154 kts 108°
2026-04-17 22:45 48.52715 11.91786 2885 ft 152 kts 108°
2026-04-17 22:45 48.52636 11.93363 2717 ft 153 kts 80°
2026-04-17 22:45 48.52793 11.94915 2669 ft 147 kts 80°
2026-04-17 22:45 48.52999 11.96431 2539 ft 147 kts 76°
2026-04-17 22:46 48.53086 11.97891 2610 ft 131 kts 112°
2026-04-17 22:46 48.52386 11.98558 2655 ft 121 kts 180°
2026-04-17 22:46 48.51661 11.97998 2537 ft 119 kts 221°
2026-04-17 22:46 48.50978 11.97373 2496 ft 113 kts 198°
2026-04-17 22:47 48.50218 11.97365 2413 ft 108 kts 168°
2026-04-17 22:47 48.49678 11.97983 2407 ft 95 kts 111°
2026-04-17 22:47 48.49645 11.98879 2295 ft 82 kts 76°
2026-04-17 22:47 48.49812 11.99660 2174 ft 79 kts 60°
2026-04-17 22:48 48.50081 12.00363 2061 ft 79 kts 54°
2026-04-17 22:48 48.50384 12.01059 1871 ft 80 kts 53°
2026-04-17 22:48 48.50685 12.01769 1673 ft 80 kts 58°
2026-04-17 22:48 48.50928 12.02544 1398 ft 83 kts 65°
2026-04-17 22:49 48.51129 12.03230 1318 ft 58 kts 64°
2026-04-17 22:49 48.51268 12.03705 1318 ft 31 kts 67°
2026-04-17 22:49 48.51310 12.03842 1317 ft 8 kts 59°
2026-04-17 22:49 48.51365 12.03835 1317 ft 7 kts 300°
2026-04-17 22:50 48.51371 12.03759 1317 ft 7 kts 263°
2026-04-17 22:50 48.51370 12.03707 1317 ft 0 kts 246°
2026-04-17 22:50 48.51363 12.03682 1317 ft 0 kts 244°